createdAt,value
2023-04-15T00:00:15.106Z,21.74
2023-04-15T00:01:15.078Z,21.66
2023-04-15T00:02:15.148Z,21.64
2023-04-15T00:03:15.247Z,21.66
2023-04-15T00:04:15.143Z,21.63
2023-04-15T00:05:15.066Z,21.66
2023-04-15T00:06:15.054Z,21.62
2023-04-15T00:07:15.047Z,21.60
2023-04-15T00:08:15.052Z,21.64
2023-04-15T00:09:15.036Z,21.64
2023-04-15T00:10:15.019Z,21.66
2023-04-15T00:11:15.037Z,21.69
2023-04-15T00:12:15.020Z,21.63
2023-04-15T00:13:15.108Z,21.62
2023-04-15T00:14:15.119Z,21.60
2023-04-15T00:15:15.208Z,21.60
2023-04-15T00:16:15.273Z,21.60
2023-04-15T00:17:15.311Z,21.62
2023-04-15T00:18:15.413Z,21.60
2023-04-15T00:19:15.402Z,21.57
2023-04-15T00:20:15.473Z,21.61
2023-04-15T00:21:15.493Z,21.64
2023-04-15T00:22:15.544Z,21.56
2023-04-15T00:23:15.582Z,21.59
2023-04-15T00:24:15.609Z,21.58
2023-04-15T00:25:15.643Z,21.64
2023-04-15T00:26:15.675Z,21.58
2023-04-15T00:27:15.705Z,21.61
2023-04-15T00:28:15.791Z,21.61
2023-04-15T00:29:15.766Z,21.57
2023-04-15T00:30:15.838Z,21.58
2023-04-15T00:31:15.897Z,21.63
2023-04-15T00:32:15.913Z,21.58
2023-04-15T00:33:15.947Z,21.57
2023-04-15T00:34:15.983Z,21.55
2023-04-15T00:35:16.014Z,21.57
2023-04-15T00:36:16.084Z,21.58
2023-04-15T00:37:16.129Z,21.58
2023-04-15T00:38:16.212Z,21.54
2023-04-15T00:39:16.241Z,21.55
2023-04-15T00:40:16.309Z,21.61
2023-04-15T00:41:16.360Z,21.58
2023-04-15T00:42:16.409Z,21.57
2023-04-15T00:43:16.498Z,21.57
2023-04-15T00:44:16.505Z,21.57
2023-04-15T00:45:16.549Z,21.58
2023-04-15T00:46:16.653Z,21.58
2023-04-15T00:47:16.616Z,21.53
2023-04-15T00:48:16.668Z,21.61
2023-04-15T00:49:16.705Z,21.53
2023-04-15T00:50:16.741Z,21.55
2023-04-15T00:51:16.790Z,21.58
2023-04-15T00:52:16.856Z,21.58
2023-04-15T00:53:16.889Z,21.61
2023-04-15T00:54:16.969Z,21.61
2023-04-15T00:55:17.020Z,21.60
2023-04-15T00:56:17.072Z,21.55
2023-04-15T00:57:17.122Z,21.58
2023-04-15T00:58:17.176Z,21.54
2023-04-15T00:59:17.247Z,21.58
2023-04-15T01:00:17.323Z,21.58
2023-04-15T01:01:17.381Z,21.58
2023-04-15T01:02:17.545Z,21.54
2023-04-15T01:03:17.601Z,21.53
2023-04-15T01:04:17.661Z,21.48
2023-04-15T01:05:17.650Z,21.57
2023-04-15T01:06:17.657Z,21.52
2023-04-15T01:07:17.734Z,21.58
2023-04-15T01:08:17.762Z,21.51
2023-04-15T01:09:17.830Z,21.51
2023-04-15T01:10:17.861Z,21.51
2023-04-15T01:11:17.910Z,21.48
2023-04-15T01:12:17.964Z,21.49
2023-04-15T01:13:18.011Z,21.52
2023-04-15T01:14:18.059Z,21.52
2023-04-15T01:15:18.102Z,21.45
2023-04-15T01:16:18.185Z,21.43
2023-04-15T01:17:18.223Z,21.42
2023-04-15T01:18:18.310Z,21.43
2023-04-15T01:19:18.348Z,21.43
2023-04-15T01:20:18.410Z,21.37
2023-04-15T01:21:18.447Z,21.40
2023-04-15T01:22:18.510Z,21.34
2023-04-15T01:23:18.555Z,21.37
2023-04-15T01:24:18.664Z,21.39
2023-04-15T01:25:18.714Z,21.34
2023-04-15T01:26:18.677Z,21.34
2023-04-15T01:27:18.692Z,21.31
2023-04-15T01:28:18.737Z,21.34
2023-04-15T01:29:18.787Z,21.31
2023-04-15T01:30:18.860Z,21.28
2023-04-15T01:31:18.944Z,21.33
2023-04-15T01:32:18.929Z,21.25
2023-04-15T01:33:18.992Z,21.28
2023-04-15T01:34:19.027Z,21.22
2023-04-15T01:35:19.077Z,21.25
2023-04-15T01:36:19.115Z,21.19
2023-04-15T01:37:19.160Z,21.23
2023-04-15T01:38:19.197Z,21.23
2023-04-15T01:39:19.238Z,21.17
2023-04-15T01:40:19.300Z,21.14
2023-04-15T01:41:19.346Z,21.17
2023-04-15T01:42:19.388Z,21.13
2023-04-15T01:43:19.427Z,21.10
2023-04-15T01:44:19.461Z,21.16
2023-04-15T01:45:19.517Z,21.08
2023-04-15T01:46:19.583Z,21.08
2023-04-15T01:47:19.656Z,21.10
2023-04-15T01:48:19.639Z,21.07
2023-04-15T01:49:19.681Z,21.08
2023-04-15T01:50:19.744Z,21.03
2023-04-15T01:51:19.766Z,21.05
2023-04-15T01:52:19.809Z,21.02
2023-04-15T01:53:19.857Z,21.01
2023-04-15T01:54:19.900Z,20.99
2023-04-15T01:55:19.950Z,21.01
2023-04-15T01:56:20.023Z,21.01
2023-04-15T01:57:20.046Z,20.99
2023-04-15T01:58:20.089Z,20.98
2023-04-15T01:59:20.140Z,20.95
2023-04-15T02:00:20.181Z,20.93
2023-04-15T02:01:20.338Z,20.95
2023-04-15T02:02:20.315Z,20.93
2023-04-15T02:03:20.385Z,20.93
2023-04-15T02:04:20.317Z,20.84
2023-04-15T02:05:20.386Z,20.86
2023-04-15T02:06:20.430Z,20.86
2023-04-15T02:07:20.507Z,20.84
2023-04-15T02:08:20.580Z,20.87
2023-04-15T02:09:20.646Z,20.78
2023-04-15T02:10:20.665Z,20.84
2023-04-15T02:11:20.715Z,20.82
2023-04-15T02:12:20.757Z,20.79
2023-04-15T02:13:20.790Z,20.78
2023-04-15T02:14:20.824Z,20.73
2023-04-15T02:15:20.863Z,20.72
2023-04-15T02:16:20.919Z,20.70
2023-04-15T02:17:21.020Z,20.72
2023-04-15T02:18:21.025Z,20.69
2023-04-15T02:19:21.054Z,20.73
2023-04-15T02:20:21.165Z,20.69
2023-04-15T02:21:21.144Z,20.63
2023-04-15T02:22:21.186Z,20.61
2023-04-15T02:23:21.236Z,20.63
2023-04-15T02:24:21.301Z,20.61
2023-04-15T02:25:21.357Z,20.60
2023-04-15T02:26:21.413Z,20.60
2023-04-15T02:27:21.441Z,20.60
2023-04-15T02:28:21.577Z,20.54
2023-04-15T02:29:21.506Z,20.52
2023-04-15T02:30:21.580Z,20.54
2023-04-15T02:31:21.670Z,20.51
2023-04-15T02:32:21.703Z,20.51
2023-04-15T02:33:21.692Z,20.52
2023-04-15T02:34:21.712Z,20.48
2023-04-15T02:35:21.732Z,20.45
2023-04-15T02:36:21.744Z,20.48
2023-04-15T02:37:21.737Z,20.45
2023-04-15T02:38:21.740Z,20.38
2023-04-15T02:39:21.735Z,20.43
2023-04-15T02:40:21.756Z,20.43
2023-04-15T02:41:21.732Z,20.34
2023-04-15T02:42:21.735Z,20.34
2023-04-15T02:43:21.728Z,20.34
2023-04-15T02:44:21.758Z,20.35
2023-04-15T02:45:21.757Z,20.37
2023-04-15T02:46:21.856Z,20.31
2023-04-15T02:47:21.864Z,20.32
2023-04-15T02:48:21.910Z,20.34
2023-04-15T02:49:21.974Z,20.25
2023-04-15T02:50:22.008Z,20.31
2023-04-15T02:51:22.056Z,20.23
2023-04-15T02:52:22.112Z,20.27
2023-04-15T02:53:22.117Z,20.23
2023-04-15T02:54:22.171Z,20.19
2023-04-15T02:55:22.260Z,20.21
2023-04-15T02:56:22.294Z,20.16
2023-04-15T02:57:22.338Z,20.16
2023-04-15T02:58:22.351Z,20.17
2023-04-15T02:59:22.380Z,20.14
2023-04-15T03:00:22.415Z,20.10
2023-04-15T03:01:22.510Z,20.11
2023-04-15T03:02:22.583Z,20.07
2023-04-15T03:03:22.698Z,20.11
2023-04-15T03:04:22.653Z,20.07
2023-04-15T03:05:22.651Z,20.05
2023-04-15T03:06:22.689Z,20.02
2023-04-15T03:07:22.738Z,20.05
2023-04-15T03:08:22.785Z,19.99
2023-04-15T03:09:22.812Z,19.99
2023-04-15T03:10:22.842Z,20.04
2023-04-15T03:11:22.863Z,19.94
2023-04-15T03:12:22.847Z,19.93
2023-04-15T03:13:22.843Z,19.95
2023-04-15T03:14:22.877Z,19.96
2023-04-15T03:15:22.909Z,19.90
2023-04-15T03:16:22.921Z,19.91
2023-04-15T03:17:22.961Z,19.90
2023-04-15T03:18:22.915Z,19.90
2023-04-15T03:19:22.922Z,19.89
2023-04-15T03:20:22.997Z,19.87
2023-04-15T03:21:23.007Z,19.90
2023-04-15T03:22:23.058Z,19.80
2023-04-15T03:23:23.103Z,19.85
2023-04-15T03:24:23.169Z,19.81
2023-04-15T03:25:23.217Z,19.83
2023-04-15T03:26:23.281Z,19.81
2023-04-15T03:27:23.299Z,19.76
2023-04-15T03:28:23.349Z,19.78
2023-04-15T03:29:23.405Z,19.76
2023-04-15T03:30:23.476Z,19.79
2023-04-15T03:31:23.581Z,19.74
2023-04-15T03:32:23.606Z,19.78
2023-04-15T03:33:23.624Z,19.70
2023-04-15T03:34:23.666Z,19.73
2023-04-15T03:35:23.723Z,19.73
2023-04-15T03:36:23.785Z,19.72
2023-04-15T03:37:23.825Z,19.67
2023-04-15T03:38:23.883Z,19.70
2023-04-15T03:39:23.948Z,19.69
2023-04-15T03:40:23.993Z,19.69
2023-04-15T03:41:24.096Z,19.66
2023-04-15T03:42:24.117Z,19.67
2023-04-15T03:43:24.163Z,19.63
2023-04-15T03:44:24.197Z,19.63
2023-04-15T03:45:24.237Z,19.60
2023-04-15T03:46:24.321Z,19.61
2023-04-15T03:47:24.368Z,19.64
2023-04-15T03:48:24.452Z,19.66
2023-04-15T03:49:24.454Z,19.60
2023-04-15T03:50:24.532Z,19.52
2023-04-15T03:51:24.558Z,19.56
2023-04-15T03:52:24.597Z,19.58
2023-04-15T03:53:24.610Z,19.53
2023-04-15T03:54:24.649Z,19.51
2023-04-15T03:55:24.701Z,19.52
2023-04-15T03:56:24.671Z,19.55
2023-04-15T03:57:24.676Z,19.52
2023-04-15T03:58:24.681Z,19.51
2023-04-15T03:59:24.690Z,19.49
2023-04-15T04:00:24.749Z,19.46
2023-04-15T04:01:24.706Z,19.46
2023-04-15T04:02:24.900Z,19.47
2023-04-15T04:03:25.038Z,19.46
2023-04-15T04:04:24.979Z,19.46
2023-04-15T04:05:24.883Z,19.40
2023-04-15T04:06:24.914Z,19.43
2023-04-15T04:07:24.944Z,19.41
2023-04-15T04:08:25.021Z,19.38
2023-04-15T04:09:25.034Z,19.41
2023-04-15T04:10:25.096Z,19.38
2023-04-15T04:11:25.140Z,19.42
2023-04-15T04:12:25.210Z,19.39
2023-04-15T04:13:25.247Z,19.36
2023-04-15T04:14:25.299Z,19.37
2023-04-15T04:15:25.445Z,19.34
2023-04-15T04:16:25.522Z,19.37
2023-04-15T04:17:25.517Z,19.32
2023-04-15T04:18:25.534Z,19.31
2023-04-15T04:19:25.570Z,19.34
2023-04-15T04:20:25.585Z,19.35
2023-04-15T04:21:25.632Z,19.26
2023-04-15T04:22:25.685Z,19.33
2023-04-15T04:23:25.689Z,19.26
2023-04-15T04:24:25.686Z,19.26
2023-04-15T04:25:25.710Z,19.28
2023-04-15T04:26:25.742Z,19.28
2023-04-15T04:27:25.784Z,19.23
2023-04-15T04:28:25.819Z,19.22
2023-04-15T04:29:25.811Z,19.25
2023-04-15T04:30:25.780Z,19.23
2023-04-15T04:31:25.803Z,19.23
2023-04-15T04:32:25.842Z,19.23
2023-04-15T04:33:25.858Z,19.17
2023-04-15T04:34:25.883Z,19.22
2023-04-15T04:35:25.857Z,19.22
2023-04-15T04:36:25.913Z,19.19
2023-04-15T04:37:25.988Z,19.22
2023-04-15T04:38:26.050Z,19.14
2023-04-15T04:39:26.082Z,19.14
2023-04-15T04:40:26.180Z,19.17
2023-04-15T04:41:26.191Z,19.13
2023-04-15T04:42:26.237Z,19.14
2023-04-15T04:43:26.297Z,19.13
2023-04-15T04:44:26.367Z,19.08
2023-04-15T04:45:26.423Z,19.13
2023-04-15T04:46:26.479Z,19.11
2023-04-15T04:47:26.566Z,19.14
2023-04-15T04:48:26.588Z,19.08
2023-04-15T04:49:26.644Z,19.05
2023-04-15T04:50:26.713Z,19.05
2023-04-15T04:51:26.777Z,19.01
2023-04-15T04:52:26.844Z,19.05
2023-04-15T04:53:26.874Z,19.04
2023-04-15T04:54:26.938Z,19.04
2023-04-15T04:55:26.974Z,19.05
2023-04-15T04:56:27.022Z,19.04
2023-04-15T04:57:27.050Z,18.99
2023-04-15T04:58:27.091Z,18.98
2023-04-15T04:59:27.163Z,18.98
2023-04-15T05:00:27.218Z,18.93
2023-04-15T05:01:27.355Z,18.99
2023-04-15T05:02:27.530Z,18.95
2023-04-15T05:03:27.539Z,18.95
2023-04-15T05:04:27.442Z,18.90
2023-04-15T05:05:27.471Z,18.96
2023-04-15T05:06:27.457Z,18.95
2023-04-15T05:07:27.479Z,18.87
2023-04-15T05:08:27.494Z,18.89
2023-04-15T05:09:27.513Z,18.89
2023-04-15T05:10:27.515Z,18.89
2023-04-15T05:11:27.516Z,18.82
2023-04-15T05:12:27.551Z,18.84
2023-04-15T05:13:27.622Z,18.82
2023-04-15T05:14:27.672Z,18.84
2023-04-15T05:15:27.755Z,18.78
2023-04-15T05:16:27.803Z,18.82
2023-04-15T05:17:27.936Z,18.77
2023-04-15T05:18:27.915Z,18.72
2023-04-15T05:19:27.965Z,18.74
2023-04-15T05:20:28.025Z,18.74
2023-04-15T05:21:28.062Z,18.69
2023-04-15T05:22:28.140Z,18.71
2023-04-15T05:23:28.169Z,18.68
2023-04-15T05:24:28.247Z,18.65
2023-04-15T05:25:28.271Z,18.69
2023-04-15T05:26:28.327Z,18.60
2023-04-15T05:27:28.377Z,18.65
2023-04-15T05:28:28.411Z,18.65
2023-04-15T05:29:28.430Z,18.65
2023-04-15T05:30:28.480Z,18.59
2023-04-15T05:31:28.539Z,18.59
2023-04-15T05:32:28.595Z,18.53
2023-04-15T05:33:28.605Z,18.58
2023-04-15T05:34:28.616Z,18.58
2023-04-15T05:35:28.635Z,18.54
2023-04-15T05:36:28.683Z,18.50
2023-04-15T05:37:28.767Z,18.50
2023-04-15T05:38:28.757Z,18.45
2023-04-15T05:39:28.798Z,18.49
2023-04-15T05:40:28.842Z,18.42
2023-04-15T05:41:28.879Z,18.50
2023-04-15T05:42:28.941Z,18.50
2023-04-15T05:43:28.978Z,18.44
2023-04-15T05:44:29.035Z,18.44
2023-04-15T05:45:29.093Z,18.49
2023-04-15T05:46:29.242Z,18.47
2023-04-15T05:47:29.340Z,18.44
2023-04-15T05:48:29.268Z,18.44
2023-04-15T05:49:29.308Z,18.41
2023-04-15T05:50:29.336Z,18.39
2023-04-15T05:51:29.375Z,18.39
2023-04-15T05:52:29.408Z,18.39
2023-04-15T05:53:29.488Z,18.42
2023-04-15T05:54:29.531Z,18.41
2023-04-15T05:55:29.569Z,18.35
2023-04-15T05:56:29.604Z,18.33
2023-04-15T05:57:29.637Z,18.29
2023-04-15T05:58:29.708Z,18.37
2023-04-15T05:59:29.728Z,18.39
2023-04-15T06:00:29.823Z,18.33
2023-04-15T06:01:29.856Z,18.31
2023-04-15T06:02:30.031Z,18.31
2023-04-15T06:03:30.035Z,18.32
2023-04-15T06:04:30.039Z,18.32
2023-04-15T06:05:29.978Z,18.31
2023-04-15T06:06:30.033Z,18.26
2023-04-15T06:07:30.082Z,18.27
2023-04-15T06:08:30.122Z,18.33
2023-04-15T06:09:30.179Z,18.23
2023-04-15T06:10:30.207Z,18.26
2023-04-15T06:11:30.258Z,18.29
2023-04-15T06:12:30.295Z,18.23
2023-04-15T06:13:30.355Z,18.31
2023-04-15T06:14:30.412Z,18.22
2023-04-15T06:15:30.485Z,18.25
2023-04-15T06:16:30.590Z,18.23
2023-04-15T06:17:30.614Z,18.22
2023-04-15T06:18:30.605Z,18.20
2023-04-15T06:19:30.650Z,18.22
2023-04-15T06:20:30.705Z,18.17
2023-04-15T06:21:30.727Z,18.17
2023-04-15T06:22:30.779Z,18.17
2023-04-15T06:23:30.789Z,18.19
2023-04-15T06:24:30.843Z,18.19
2023-04-15T06:25:30.870Z,18.14
2023-04-15T06:26:30.912Z,18.08
2023-04-15T06:27:30.960Z,18.10
2023-04-15T06:28:30.983Z,18.11
2023-04-15T06:29:31.015Z,18.04
2023-04-15T06:30:31.049Z,18.07
2023-04-15T06:31:31.133Z,18.01
2023-04-15T06:32:31.222Z,18.07
2023-04-15T06:33:31.226Z,17.98
2023-04-15T06:34:31.269Z,17.99
2023-04-15T06:35:31.348Z,18.01
2023-04-15T06:36:31.411Z,17.96
2023-04-15T06:37:31.479Z,17.96
2023-04-15T06:38:31.592Z,17.94
2023-04-15T06:39:31.503Z,17.92
2023-04-15T06:40:31.542Z,17.89
2023-04-15T06:41:31.565Z,17.92
2023-04-15T06:42:31.576Z,17.94
2023-04-15T06:43:31.629Z,17.88
2023-04-15T06:44:33.801Z,17.82
2023-04-15T06:45:31.799Z,17.88
2023-04-15T06:46:31.799Z,17.85
2023-04-15T06:47:31.790Z,17.79
2023-04-15T06:48:31.767Z,17.82
2023-04-15T06:49:31.812Z,17.77
2023-04-15T06:50:31.885Z,17.78
2023-04-15T06:51:31.921Z,17.72
2023-04-15T06:52:31.961Z,17.82
2023-04-15T06:53:31.965Z,17.76
2023-04-15T06:54:32.030Z,17.76
2023-04-15T06:55:32.049Z,17.78
2023-04-15T06:56:32.084Z,17.69
2023-04-15T06:57:33.842Z,17.69
2023-04-15T06:58:32.082Z,17.69
2023-04-15T06:59:32.091Z,17.70
2023-04-15T07:00:32.072Z,17.64
2023-04-15T07:01:32.137Z,17.60
2023-04-15T07:02:32.128Z,17.64
2023-04-15T07:03:32.929Z,17.66
2023-04-15T07:04:32.069Z,17.67
2023-04-15T07:05:32.036Z,17.65
2023-04-15T07:06:32.053Z,17.63
2023-04-15T07:07:32.030Z,17.56
2023-04-15T07:08:32.011Z,17.62
2023-04-15T07:09:31.999Z,17.59
2023-04-15T07:10:31.995Z,17.57
2023-04-15T07:11:32.028Z,17.56
2023-04-15T07:12:31.983Z,17.57
2023-04-15T07:13:32.020Z,17.50
2023-04-15T07:14:31.972Z,17.53
2023-04-15T07:15:31.983Z,17.47
2023-04-15T07:16:32.019Z,17.47
2023-04-15T07:17:31.971Z,17.40
2023-04-15T07:18:31.970Z,17.44
2023-04-15T07:19:31.946Z,17.41
2023-04-15T07:20:31.951Z,17.38
2023-04-15T07:21:31.924Z,17.37
2023-04-15T07:22:31.947Z,17.37
2023-04-15T07:23:31.917Z,17.35
2023-04-15T07:24:31.956Z,17.31
2023-04-15T07:25:31.921Z,17.30
2023-04-15T07:26:31.896Z,17.25
2023-04-15T07:27:31.909Z,17.27
2023-04-15T07:28:31.881Z,17.34
2023-04-15T07:29:31.893Z,17.28
2023-04-15T07:30:31.901Z,17.31
2023-04-15T07:31:31.910Z,17.25
2023-04-15T07:32:31.895Z,17.34
2023-04-15T07:33:31.843Z,17.27
2023-04-15T07:34:32.725Z,17.25
2023-04-15T07:35:31.859Z,17.31
2023-04-15T07:36:31.842Z,17.33
2023-04-15T07:37:31.830Z,17.27
2023-04-15T07:38:31.812Z,17.27
2023-04-15T07:39:31.823Z,17.27
2023-04-15T07:40:31.824Z,17.31
2023-04-15T07:41:31.793Z,17.27
2023-04-15T07:42:31.813Z,17.25
2023-04-15T07:43:31.785Z,17.27
2023-04-15T07:44:31.803Z,17.24
2023-04-15T07:45:31.790Z,17.20
2023-04-15T07:46:31.798Z,17.21
2023-04-15T07:47:31.861Z,17.26
2023-04-15T07:48:31.791Z,17.26
2023-04-15T07:49:31.800Z,17.23
2023-04-15T07:50:31.802Z,17.23
2023-04-15T07:51:31.836Z,17.20
2023-04-15T07:52:31.838Z,17.18
2023-04-15T07:53:31.884Z,17.24
2023-04-15T07:54:31.896Z,17.21
2023-04-15T07:55:31.919Z,17.20
2023-04-15T07:56:31.931Z,17.17
2023-04-15T07:57:31.936Z,17.12
2023-04-15T07:58:31.947Z,17.11
2023-04-15T07:59:31.943Z,17.14
2023-04-15T08:00:32.015Z,17.18
2023-04-15T08:01:31.973Z,17.11
2023-04-15T08:02:32.166Z,17.12
2023-04-15T08:03:32.190Z,17.14
2023-04-15T08:04:32.244Z,17.11
2023-04-15T08:05:32.202Z,17.08
2023-04-15T08:06:32.259Z,17.07
2023-04-15T08:07:32.293Z,17.05
2023-04-15T08:08:32.372Z,17.04
2023-04-15T08:09:32.409Z,17.01
2023-04-15T08:10:32.446Z,16.97
2023-04-15T08:11:32.481Z,17.00
2023-04-15T08:12:32.515Z,16.89
2023-04-15T08:13:32.591Z,16.89
2023-04-15T08:14:32.614Z,16.82
2023-04-15T08:15:32.644Z,16.82
2023-04-15T08:16:32.883Z,16.81
2023-04-15T08:17:32.724Z,16.76
2023-04-15T08:18:32.725Z,16.78
2023-04-15T08:19:32.775Z,16.79
2023-04-15T08:20:32.819Z,16.76
2023-04-15T08:21:32.866Z,16.70
2023-04-15T08:22:32.888Z,16.75
2023-04-15T08:23:32.910Z,16.75
2023-04-15T08:24:32.945Z,16.75
2023-04-15T08:25:33.000Z,16.73
2023-04-15T08:26:32.987Z,16.76
2023-04-15T08:27:33.032Z,16.75
2023-04-15T08:28:33.052Z,16.67
2023-04-15T08:29:33.103Z,16.67
2023-04-15T08:30:33.118Z,16.64
2023-04-15T08:31:33.201Z,16.69
2023-04-15T08:32:33.197Z,16.62
2023-04-15T08:33:33.208Z,16.60
2023-04-15T08:34:33.237Z,16.60
2023-04-15T08:35:33.247Z,16.56
2023-04-15T08:36:33.265Z,16.58
2023-04-15T08:37:33.309Z,16.52
2023-04-15T08:38:33.304Z,16.56
2023-04-15T08:39:33.365Z,16.50
2023-04-15T08:40:33.411Z,16.50
2023-04-15T08:41:33.412Z,16.46
2023-04-15T08:42:33.411Z,16.42
2023-04-15T08:43:33.446Z,16.39
2023-04-15T08:44:33.488Z,16.29
2023-04-15T08:45:33.543Z,16.24
2023-04-15T08:46:33.616Z,16.26
2023-04-15T08:47:33.645Z,16.25
2023-04-15T08:48:33.651Z,16.18
2023-04-15T08:49:33.657Z,16.16
2023-04-15T08:50:33.706Z,16.16
2023-04-15T08:51:33.743Z,16.13
2023-04-15T08:52:33.827Z,16.10
2023-04-15T08:53:33.898Z,16.06
2023-04-15T08:54:33.929Z,16.05
2023-04-15T08:55:34.001Z,16.03
2023-04-15T08:56:34.101Z,15.99
2023-04-15T08:57:34.101Z,15.94
2023-04-15T08:58:34.110Z,16.02
2023-04-15T08:59:34.118Z,16.02
2023-04-15T09:00:34.132Z,16.02
2023-04-15T09:01:34.151Z,15.92
2023-04-15T09:02:34.351Z,15.92
2023-04-15T09:03:34.325Z,15.88
2023-04-15T09:04:34.220Z,15.83
2023-04-15T09:05:34.304Z,15.88
2023-04-15T09:06:34.334Z,15.86
2023-04-15T09:07:34.372Z,15.89
2023-04-15T09:08:34.442Z,15.89
2023-04-15T09:09:34.460Z,15.95
2023-04-15T09:10:34.507Z,15.89
2023-04-15T09:11:34.578Z,15.90
2023-04-15T09:12:34.605Z,15.83
2023-04-15T09:13:34.630Z,15.88
2023-04-15T09:14:34.712Z,15.88
2023-04-15T09:15:34.725Z,15.83
2023-04-15T09:16:34.774Z,15.76
2023-04-15T09:17:34.873Z,15.72
2023-04-15T09:18:34.859Z,15.73
2023-04-15T09:19:34.898Z,15.64
2023-04-15T09:20:34.906Z,15.65
2023-04-15T09:21:34.944Z,15.68
2023-04-15T09:22:34.956Z,15.61
2023-04-15T09:23:35.009Z,15.65
2023-04-15T09:24:35.046Z,15.55
2023-04-15T09:25:35.230Z,15.61
2023-04-15T09:26:35.153Z,15.60
2023-04-15T09:27:35.154Z,15.61
2023-04-15T09:28:35.191Z,15.66
2023-04-15T09:29:35.229Z,15.68
2023-04-15T09:30:35.280Z,15.65
2023-04-15T09:31:35.247Z,15.62
2023-04-15T09:32:35.288Z,15.61
2023-04-15T09:33:35.329Z,15.59
2023-04-15T09:34:35.315Z,15.62
2023-04-15T09:35:35.335Z,15.61
2023-04-15T09:36:35.336Z,15.64
2023-04-15T09:37:35.354Z,15.59
2023-04-15T09:38:35.369Z,15.63
2023-04-15T09:39:35.369Z,15.65
2023-04-15T09:40:35.398Z,15.65
2023-04-15T09:41:35.412Z,15.68
2023-04-15T09:42:35.446Z,15.71
2023-04-15T09:43:35.485Z,15.69
2023-04-15T09:44:35.494Z,15.70
2023-04-15T09:45:35.513Z,15.62
2023-04-15T09:46:35.577Z,15.67
2023-04-15T09:47:35.543Z,15.67
2023-04-15T09:48:35.551Z,15.61
2023-04-15T09:49:35.621Z,15.60
2023-04-15T09:50:35.642Z,15.62
2023-04-15T09:51:35.650Z,15.57
2023-04-15T09:52:35.675Z,15.55
2023-04-15T09:53:35.681Z,15.51
2023-04-15T09:54:35.710Z,15.47
2023-04-15T09:55:35.731Z,15.50
2023-04-15T09:56:35.766Z,15.51
2023-04-15T09:57:35.797Z,15.44
2023-04-15T09:58:35.835Z,15.38
2023-04-15T09:59:35.860Z,15.44
2023-04-15T10:00:35.877Z,15.45
2023-04-15T10:01:35.958Z,15.47
2023-04-15T10:02:36.068Z,15.45
2023-04-15T10:03:36.061Z,15.53
2023-04-15T10:04:35.956Z,15.53
2023-04-15T10:05:35.976Z,15.54
2023-04-15T10:06:35.959Z,15.52
2023-04-15T10:07:35.946Z,15.59
2023-04-15T10:08:35.930Z,15.58
2023-04-15T10:09:35.942Z,15.62
2023-04-15T10:10:35.930Z,15.62
2023-04-15T10:11:35.981Z,15.60
2023-04-15T10:12:36.011Z,15.60
2023-04-15T10:13:36.067Z,15.58
2023-04-15T10:14:36.078Z,15.60
2023-04-15T10:15:36.123Z,15.61
2023-04-15T10:16:36.128Z,15.63
2023-04-15T10:17:36.206Z,15.64
2023-04-15T10:18:36.234Z,15.64
2023-04-15T10:19:36.255Z,15.58
2023-04-15T10:20:36.255Z,15.61
2023-04-15T10:21:36.242Z,15.62
2023-04-15T10:22:36.238Z,15.62
2023-04-15T10:23:36.237Z,15.67
2023-04-15T10:24:36.251Z,15.64
2023-04-15T10:25:36.257Z,15.62
2023-04-15T10:26:36.280Z,15.61
2023-04-15T10:27:36.275Z,15.59
2023-04-15T10:28:36.285Z,15.57
2023-04-15T10:29:36.285Z,15.61
2023-04-15T10:30:36.284Z,15.64
2023-04-15T10:31:36.372Z,15.59
2023-04-15T10:32:36.377Z,15.68
2023-04-15T10:33:36.312Z,15.67
2023-04-15T10:34:36.345Z,15.70
2023-04-15T10:35:36.309Z,15.65
2023-04-15T10:36:36.353Z,15.68
2023-04-15T10:37:36.364Z,15.67
2023-04-15T10:38:36.377Z,15.65
2023-04-15T10:39:36.444Z,15.61
2023-04-15T10:40:36.492Z,15.66
2023-04-15T10:41:36.538Z,15.68
2023-04-15T10:42:36.581Z,15.69
2023-04-15T10:43:36.625Z,15.66
2023-04-15T10:44:36.673Z,15.69
2023-04-15T10:45:36.824Z,15.65
2023-04-15T10:46:36.849Z,15.69
2023-04-15T10:47:36.901Z,15.68
2023-04-15T10:48:36.855Z,15.63
2023-04-15T10:49:36.902Z,15.68
2023-04-15T10:50:36.949Z,15.66
2023-04-15T10:51:36.982Z,15.71
2023-04-15T10:52:37.033Z,15.63
2023-04-15T10:53:37.079Z,15.65
2023-04-15T10:54:37.127Z,15.63
2023-04-15T10:55:37.153Z,15.67
2023-04-15T10:56:37.147Z,15.61
2023-04-15T10:57:37.234Z,15.64
2023-04-15T10:58:37.183Z,15.63
2023-04-15T10:59:37.230Z,15.63
2023-04-15T11:00:37.223Z,15.66
2023-04-15T11:01:37.258Z,15.64
2023-04-15T11:02:37.343Z,15.64
2023-04-15T11:03:37.473Z,15.61
2023-04-15T11:04:37.472Z,15.62
2023-04-15T11:05:37.414Z,15.69
2023-04-15T11:06:37.443Z,15.68
2023-04-15T11:07:37.498Z,15.64
2023-04-15T11:08:37.588Z,15.64
2023-04-15T11:09:37.643Z,15.68
2023-04-15T11:10:37.711Z,15.67
2023-04-15T11:11:37.716Z,15.68
2023-04-15T11:12:37.796Z,15.70
2023-04-15T11:13:37.823Z,15.67
2023-04-15T11:14:37.874Z,15.67
2023-04-15T11:15:37.947Z,15.71
2023-04-15T11:16:38.020Z,15.62
2023-04-15T11:17:38.062Z,15.73
2023-04-15T11:18:38.120Z,15.68
2023-04-15T11:19:38.134Z,15.71
2023-04-15T11:20:38.172Z,15.76
2023-04-15T11:21:38.204Z,15.74
2023-04-15T11:22:38.252Z,15.72
2023-04-15T11:23:38.313Z,15.69
2023-04-15T11:24:38.372Z,15.71
2023-04-15T11:25:38.433Z,15.69
2023-04-15T11:26:38.481Z,15.71
2023-04-15T11:27:38.577Z,15.74
2023-04-15T11:28:39.125Z,15.68
2023-04-15T11:29:38.637Z,15.67
2023-04-15T11:30:38.685Z,15.68
2023-04-15T11:31:38.834Z,15.64
2023-04-15T11:32:38.725Z,15.69
2023-04-15T11:33:38.778Z,15.63
2023-04-15T11:34:38.815Z,15.63
2023-04-15T11:35:38.864Z,15.66
2023-04-15T11:36:38.907Z,15.64
2023-04-15T11:37:38.980Z,15.64
2023-04-15T11:38:39.000Z,15.66
2023-04-15T11:39:39.053Z,15.71
2023-04-15T11:40:39.118Z,15.70
2023-04-15T11:41:39.132Z,15.73
2023-04-15T11:42:49.159Z,15.73
2023-04-15T11:43:40.155Z,15.73
2023-04-15T11:44:39.154Z,15.75
2023-04-15T11:45:39.226Z,15.84
2023-04-15T11:46:39.149Z,15.82
2023-04-15T11:47:39.140Z,15.85
2023-04-15T11:48:39.114Z,15.91
2023-04-15T11:49:39.120Z,15.88
2023-04-15T11:50:39.123Z,15.91
2023-04-15T11:51:39.092Z,15.91
2023-04-15T11:52:39.097Z,15.90
2023-04-15T11:53:39.087Z,16.01
2023-04-15T11:54:39.069Z,15.98
2023-04-15T11:55:39.082Z,15.99
2023-04-15T11:56:39.060Z,16.04
2023-04-15T11:57:39.062Z,16.06
2023-04-15T11:58:39.077Z,16.07
2023-04-15T11:59:45.215Z,16.10
2023-04-15T12:00:40.085Z,16.07
2023-04-15T12:01:39.092Z,16.15
2023-04-15T12:02:39.232Z,16.09
2023-04-15T12:03:39.158Z,16.11
2023-04-15T12:04:39.142Z,16.16
2023-04-15T12:05:39.066Z,16.15
2023-04-15T12:06:39.130Z,16.10
2023-04-15T12:07:39.036Z,16.17
2023-04-15T12:08:39.028Z,16.09
2023-04-15T12:09:39.028Z,16.19
2023-04-15T12:10:39.037Z,16.20
2023-04-15T12:11:39.033Z,16.16
2023-04-15T12:12:39.041Z,16.17
2023-04-15T12:13:39.094Z,16.17
2023-04-15T12:14:39.166Z,16.20
2023-04-15T12:15:39.319Z,16.19
2023-04-15T12:16:48.339Z,16.20
2023-04-15T12:17:51.826Z,16.17
2023-04-15T12:18:40.231Z,16.19
2023-04-15T12:19:39.259Z,16.16
2023-04-15T12:20:39.237Z,16.21
2023-04-15T12:21:39.225Z,16.21
2023-04-15T12:22:39.220Z,16.09
2023-04-15T12:23:39.197Z,16.09
2023-04-15T12:24:39.212Z,16.12
2023-04-15T12:25:39.224Z,16.12
2023-04-15T12:26:39.196Z,16.10
2023-04-15T12:27:39.197Z,16.17
2023-04-15T12:28:39.185Z,16.10
2023-04-15T12:29:39.204Z,16.10
2023-04-15T12:30:39.180Z,16.15
2023-04-15T12:31:39.284Z,16.12
2023-04-15T12:32:41.456Z,16.18
2023-04-15T12:33:39.170Z,16.15
2023-04-15T12:34:39.142Z,16.17
2023-04-15T12:35:39.133Z,16.13
2023-04-15T12:36:39.130Z,16.15
2023-04-15T12:37:39.108Z,16.20
2023-04-15T12:38:39.122Z,16.17
2023-04-15T12:39:39.111Z,16.19
2023-04-15T12:40:39.109Z,16.21
2023-04-15T12:41:39.088Z,16.22
2023-04-15T12:42:39.096Z,16.27
2023-04-15T12:43:39.091Z,16.24
2023-04-15T12:44:39.087Z,16.27
2023-04-15T12:45:39.095Z,16.26
2023-04-15T12:46:39.091Z,16.34
2023-04-15T12:47:39.076Z,16.36
2023-04-15T12:48:39.056Z,16.38
2023-04-15T12:49:39.042Z,16.35
2023-04-15T12:50:39.044Z,16.47
2023-04-15T12:51:39.030Z,16.44
2023-04-15T12:52:39.030Z,16.49